createdAt,value
2023-05-20T00:01:51.592Z,1.90
2023-05-20T00:04:18.675Z,2.00
2023-05-20T00:06:45.491Z,1.98
2023-05-20T00:09:12.248Z,2.67
2023-05-20T00:11:38.722Z,2.30
2023-05-20T00:14:05.544Z,2.22
2023-05-20T00:16:32.058Z,2.00
2023-05-20T00:18:59.122Z,2.00
2023-05-20T00:21:25.648Z,2.35
2023-05-20T00:23:52.377Z,2.40
2023-05-20T00:26:19.194Z,2.00
2023-05-20T00:28:45.805Z,1.90
2023-05-20T00:31:12.714Z,2.10
2023-05-20T00:33:39.241Z,2.20
2023-05-20T00:36:06.375Z,1.85
2023-05-20T00:38:33.912Z,2.55
2023-05-20T00:41:00.612Z,2.30
2023-05-20T00:43:27.224Z,2.40
2023-05-20T00:45:54.525Z,2.20
2023-05-20T00:48:22.061Z,2.33
2023-05-20T00:50:50.150Z,2.40
2023-05-20T00:53:21.135Z,2.28
2023-05-20T00:55:48.086Z,2.50
2023-05-20T00:58:14.646Z,2.10
2023-05-20T01:00:41.675Z,2.50
2023-05-20T01:03:08.464Z,1.92
2023-05-20T01:05:35.424Z,2.05
2023-05-20T01:08:02.206Z,2.70
2023-05-20T01:10:30.492Z,2.25
2023-05-20T01:12:59.904Z,2.30
2023-05-20T01:15:30.472Z,2.22
2023-05-20T01:18:01.790Z,2.40
2023-05-20T01:20:32.426Z,2.45
2023-05-20T01:22:59.601Z,2.38
2023-05-20T01:25:26.463Z,2.30
2023-05-20T01:27:55.212Z,2.38
2023-05-20T01:30:22.165Z,2.40
2023-05-20T01:32:52.573Z,2.50
2023-05-20T01:35:22.988Z,2.25
2023-05-20T01:37:50.834Z,2.35
2023-05-20T01:40:19.223Z,2.20
2023-05-20T01:42:46.510Z,2.25
2023-05-20T01:45:13.845Z,2.15
2023-05-20T01:47:40.754Z,2.47
2023-05-20T01:50:07.792Z,2.38
2023-05-20T01:52:34.677Z,2.50
2023-05-20T01:55:01.444Z,2.53
2023-05-20T01:57:28.522Z,2.22
2023-05-20T01:59:54.978Z,2.40
2023-05-20T02:02:21.550Z,2.80
2023-05-20T02:04:49.063Z,2.40
2023-05-20T02:07:16.797Z,2.88
2023-05-20T02:09:43.323Z,2.75
2023-05-20T02:12:16.438Z,2.25
2023-05-20T02:14:47.274Z,2.70
2023-05-20T02:17:17.183Z,3.05
2023-05-20T02:19:47.090Z,2.40
2023-05-20T02:22:14.184Z,2.60
2023-05-20T02:24:41.210Z,2.42
2023-05-20T02:27:07.938Z,2.35
2023-05-20T02:29:34.801Z,3.00
2023-05-20T02:32:01.538Z,2.38
2023-05-20T02:34:28.602Z,2.58
2023-05-20T02:36:55.512Z,2.45
2023-05-20T02:39:22.631Z,2.50
2023-05-20T02:41:49.213Z,2.58
2023-05-20T02:44:18.047Z,2.35
2023-05-20T02:46:44.964Z,2.67
2023-05-20T02:49:11.802Z,2.58
2023-05-20T02:51:38.275Z,2.80
2023-05-20T02:54:05.224Z,2.33
2023-05-20T02:56:32.466Z,2.70
2023-05-20T02:58:59.132Z,2.47
2023-05-20T03:01:25.777Z,2.35
2023-05-20T03:03:52.826Z,2.38
2023-05-20T03:06:19.339Z,2.85
2023-05-20T03:08:46.173Z,2.58
2023-05-20T03:11:13.022Z,2.70
2023-05-20T03:13:39.500Z,2.75
2023-05-20T03:16:06.295Z,2.40
2023-05-20T03:18:33.271Z,2.70
2023-05-20T03:20:59.754Z,2.80
2023-05-20T03:23:27.175Z,2.67
2023-05-20T03:25:53.741Z,3.38
2023-05-20T03:28:20.164Z,2.42
2023-05-20T03:30:47.075Z,2.83
2023-05-20T03:33:15.091Z,2.95
2023-05-20T03:35:41.762Z,2.72
2023-05-20T03:38:08.313Z,3.92
2023-05-20T03:40:34.786Z,2.70
2023-05-20T03:43:01.760Z,2.60
2023-05-20T03:45:28.457Z,2.85
2023-05-20T03:47:56.454Z,2.95
2023-05-20T03:50:23.493Z,3.10
2023-05-20T03:52:49.939Z,3.22
2023-05-20T03:55:17.982Z,2.80
2023-05-20T03:57:44.470Z,3.03
2023-05-20T04:00:14.391Z,3.08
2023-05-20T04:02:41.425Z,2.90
2023-05-20T04:05:12.097Z,2.83
2023-05-20T04:07:38.995Z,3.38
2023-05-20T04:10:06.161Z,3.30
2023-05-20T04:12:33.077Z,3.20
2023-05-20T04:15:03.337Z,3.20
2023-05-20T04:17:30.634Z,2.67
2023-05-20T04:19:59.696Z,2.63
2023-05-20T04:22:26.874Z,2.80
2023-05-20T04:24:53.529Z,2.90
2023-05-20T04:27:21.377Z,2.88
2023-05-20T04:29:48.200Z,3.38
2023-05-20T04:32:18.554Z,3.50
2023-05-20T04:34:48.103Z,3.00
2023-05-20T04:37:14.581Z,3.13
2023-05-20T04:39:41.433Z,3.20
2023-05-20T04:42:08.341Z,3.22
2023-05-20T04:44:34.908Z,3.17
2023-05-20T04:47:01.470Z,2.78
2023-05-20T04:49:30.251Z,3.05
2023-05-20T04:51:57.211Z,2.90
2023-05-20T04:54:25.108Z,3.13
2023-05-20T04:56:51.683Z,3.58
2023-05-20T04:59:18.345Z,3.35
2023-05-20T05:01:45.143Z,3.00
2023-05-20T05:04:11.726Z,3.00
2023-05-20T05:06:39.844Z,3.67
2023-05-20T05:09:06.364Z,3.17
2023-05-20T05:11:32.896Z,3.10
2023-05-20T05:14:00.007Z,3.40
2023-05-20T05:16:26.620Z,3.10
2023-05-20T05:18:53.250Z,3.20
2023-05-20T05:21:20.094Z,3.83
2023-05-20T05:23:46.658Z,3.75
2023-05-20T05:26:13.119Z,3.33
2023-05-20T05:28:42.727Z,3.72
2023-05-20T05:31:09.563Z,2.60
2023-05-20T05:33:36.102Z,2.78
2023-05-20T05:36:03.233Z,2.90
2023-05-20T05:38:29.859Z,2.80
2023-05-20T05:40:57.236Z,2.70
2023-05-20T05:43:23.675Z,2.60
2023-05-20T05:45:50.233Z,2.83
2023-05-20T05:48:17.063Z,3.20
2023-05-20T05:50:46.942Z,3.22
2023-05-20T05:53:13.908Z,2.88
2023-05-20T05:55:40.376Z,2.97
2023-05-20T05:58:06.859Z,3.50
2023-05-20T06:00:34.579Z,3.20
2023-05-20T06:03:01.434Z,3.10
2023-05-20T06:05:29.598Z,2.67
2023-05-20T06:07:56.879Z,2.83
2023-05-20T06:10:24.126Z,3.00
2023-05-20T06:12:50.583Z,3.42
2023-05-20T06:15:17.100Z,3.38
2023-05-20T06:17:44.774Z,3.88
2023-05-20T06:20:11.759Z,3.40
2023-05-20T06:22:39.720Z,3.22
2023-05-20T06:25:06.669Z,3.15
2023-05-20T06:27:33.258Z,3.10
2023-05-20T06:29:59.793Z,3.60
2023-05-20T06:32:26.275Z,3.40
2023-05-20T06:34:53.133Z,3.72
2023-05-20T06:37:19.634Z,3.67
2023-05-20T06:39:47.620Z,3.50
2023-05-20T06:42:14.064Z,3.72
2023-05-20T06:44:40.557Z,3.40
2023-05-20T06:47:06.969Z,4.05
2023-05-20T06:49:34.468Z,3.35
2023-05-20T06:52:00.895Z,3.50
2023-05-20T06:54:27.391Z,3.85
2023-05-20T06:56:54.344Z,3.60
2023-05-20T06:59:20.930Z,3.90
2023-05-20T07:01:47.447Z,3.28
2023-05-20T07:04:14.551Z,3.40
2023-05-20T07:06:41.070Z,3.65
2023-05-20T07:09:07.778Z,3.50
2023-05-20T07:11:34.256Z,3.42
2023-05-20T07:14:00.889Z,3.53
2023-05-20T07:16:27.500Z,3.60
2023-05-20T07:18:54.072Z,3.53
2023-05-20T07:21:21.018Z,4.28
2023-05-20T07:23:47.496Z,3.83
2023-05-20T07:26:14.453Z,3.53
2023-05-20T07:28:41.143Z,3.50
2023-05-20T07:31:08.102Z,3.22
2023-05-20T07:33:34.522Z,3.28
2023-05-20T07:36:01.654Z,3.78
2023-05-20T07:38:28.110Z,3.35
2023-05-20T07:40:54.974Z,3.50
2023-05-20T07:43:21.534Z,3.53
2023-05-20T07:45:48.988Z,3.38
2023-05-20T07:48:15.813Z,3.42
2023-05-20T07:50:42.487Z,3.72
2023-05-20T07:53:08.970Z,3.28
2023-05-20T07:55:36.926Z,3.28
2023-05-20T07:58:04.112Z,3.47
2023-05-20T08:00:30.989Z,3.15
2023-05-20T08:02:57.662Z,3.40
2023-05-20T08:05:24.819Z,4.03
2023-05-20T08:07:51.287Z,3.70
2023-05-20T08:10:17.772Z,3.30
2023-05-20T08:12:44.828Z,3.22
2023-05-20T08:15:11.663Z,3.45
2023-05-20T08:17:38.903Z,3.10
2023-05-20T08:20:06.065Z,3.08
2023-05-20T08:22:32.494Z,3.10
2023-05-20T08:24:58.913Z,3.22
2023-05-20T08:27:25.743Z,3.30
2023-05-20T08:29:52.176Z,3.13
2023-05-20T08:32:19.001Z,3.45
2023-05-20T08:34:45.932Z,3.10
2023-05-20T08:37:12.343Z,3.20
2023-05-20T08:39:39.294Z,3.25
2023-05-20T08:42:07.862Z,3.13
2023-05-20T08:44:36.091Z,3.53
2023-05-20T08:47:03.872Z,3.10
2023-05-20T08:49:31.779Z,3.60
2023-05-20T08:52:00.264Z,3.42
2023-05-20T08:54:41.938Z,3.60
2023-05-20T08:57:08.812Z,3.05
2023-05-20T08:59:35.412Z,3.15
2023-05-20T09:02:02.269Z,3.03
2023-05-20T09:04:28.870Z,3.50
2023-05-20T09:06:56.074Z,3.80
2023-05-20T09:09:22.547Z,3.42
2023-05-20T09:11:49.491Z,3.75
2023-05-20T09:14:16.021Z,3.45
2023-05-20T09:16:42.997Z,3.80
2023-05-20T09:19:10.543Z,3.95
2023-05-20T09:21:38.886Z,3.60
2023-05-20T09:24:05.658Z,3.60
2023-05-20T09:26:32.793Z,3.72
2023-05-20T09:29:00.692Z,4.10
2023-05-20T09:31:38.823Z,4.60
2023-05-20T09:34:06.450Z,4.10
2023-05-20T09:36:35.013Z,3.78
2023-05-20T09:39:05.500Z,3.83
2023-05-20T09:41:38.700Z,3.65
2023-05-20T09:44:06.816Z,3.15
2023-05-20T09:46:34.431Z,3.72
2023-05-20T09:49:01.882Z,4.35
2023-05-20T09:51:29.975Z,3.80
2023-05-20T09:53:57.650Z,3.90
2023-05-20T09:56:25.788Z,4.35
2023-05-20T09:58:58.177Z,3.95
2023-05-20T10:01:26.570Z,3.97
2023-05-20T10:03:53.810Z,4.88
2023-05-20T10:06:42.230Z,4.15
2023-05-20T10:09:12.368Z,3.92
2023-05-20T10:12:08.097Z,4.00
2023-05-20T10:14:51.217Z,4.30
2023-05-20T10:17:37.939Z,4.53
2023-05-20T10:20:09.383Z,4.03
2023-05-20T10:22:36.044Z,4.15
2023-05-20T10:25:07.790Z,4.03
2023-05-20T10:27:47.976Z,4.30
2023-05-20T10:30:22.541Z,4.20
2023-05-20T10:32:53.498Z,4.18
2023-05-20T10:35:27.415Z,4.10
2023-05-20T10:38:07.426Z,4.20
2023-05-20T10:40:34.099Z,4.47
2023-05-20T10:43:12.713Z,4.03
2023-05-20T10:45:53.891Z,4.38
2023-05-20T10:48:26.202Z,4.25
2023-05-20T10:51:00.435Z,4.13
2023-05-20T10:53:34.013Z,4.32
2023-05-20T10:56:01.570Z,4.73
2023-05-20T10:58:28.279Z,4.18
2023-05-20T11:00:56.157Z,4.60
2023-05-20T11:03:23.838Z,4.38
2023-05-20T11:05:51.469Z,4.10
2023-05-20T11:08:28.521Z,4.68
2023-05-20T11:10:59.429Z,4.88
2023-05-20T11:13:26.699Z,4.32
2023-05-20T11:15:53.890Z,4.28
2023-05-20T11:18:20.518Z,4.38
2023-05-20T11:20:47.603Z,5.00
2023-05-20T11:23:15.247Z,4.25
2023-05-20T11:25:42.522Z,4.38
2023-05-20T11:28:15.368Z,4.40
2023-05-20T11:30:45.528Z,4.47
2023-05-20T11:33:13.751Z,4.97
2023-05-20T11:35:53.100Z,4.43
2023-05-20T11:38:20.747Z,4.30
2023-05-20T11:40:55.020Z,4.57
2023-05-20T11:43:23.578Z,4.40
2023-05-20T11:45:55.650Z,4.15
2023-05-20T11:48:23.582Z,4.47
2023-05-20T11:50:50.130Z,4.50
2023-05-20T11:53:21.838Z,4.05
2023-05-20T11:55:54.989Z,4.50
2023-05-20T11:58:25.821Z,4.00
2023-05-20T12:00:57.098Z,4.07
2023-05-20T12:03:29.122Z,4.40
2023-05-20T12:05:55.962Z,4.95
2023-05-20T12:08:22.822Z,4.15
2023-05-20T12:10:49.555Z,4.00
2023-05-20T12:13:16.530Z,5.13
2023-05-20T12:15:43.096Z,4.22
2023-05-20T12:18:09.966Z,4.40
2023-05-20T12:20:37.458Z,4.10
2023-05-20T12:23:04.799Z,4.25
2023-05-20T12:25:31.584Z,4.22
2023-05-20T12:27:59.417Z,4.20
2023-05-20T12:30:26.335Z,3.83
2023-05-20T12:32:52.863Z,4.55
2023-05-20T12:35:36.777Z,4.18
2023-05-20T12:38:03.352Z,4.50
2023-05-20T12:40:30.255Z,4.28
2023-05-20T12:42:57.083Z,5.13
2023-05-20T12:45:23.548Z,5.05
2023-05-20T12:47:50.450Z,4.32
2023-05-20T12:50:17.313Z,4.32
2023-05-20T12:52:43.820Z,5.03
2023-05-20T12:55:14.090Z,4.75
2023-05-20T12:57:41.731Z,4.80
2023-05-20T13:00:09.542Z,4.68
2023-05-20T13:02:40.237Z,4.95
2023-05-20T13:05:07.291Z,4.60
2023-05-20T13:07:34.152Z,5.03
2023-05-20T13:10:02.243Z,4.57
2023-05-20T13:12:28.755Z,4.32
2023-05-20T13:14:55.390Z,5.22
2023-05-20T13:17:22.162Z,4.68
2023-05-20T13:19:48.815Z,5.15
2023-05-20T13:22:15.843Z,5.45
2023-05-20T13:24:42.330Z,5.20
2023-05-20T13:27:09.133Z,4.88
2023-05-20T13:29:35.919Z,4.90
2023-05-20T13:32:02.716Z,4.85
2023-05-20T13:34:30.532Z,5.30
2023-05-20T13:36:57.054Z,4.95
2023-05-20T13:39:23.668Z,5.45
2023-05-20T13:41:50.750Z,5.72
2023-05-20T13:44:17.618Z,5.32
2023-05-20T13:46:44.904Z,5.05
2023-05-20T13:49:11.626Z,5.03
2023-05-20T13:51:38.481Z,4.80
2023-05-20T13:54:06.344Z,5.63
2023-05-20T13:56:33.578Z,5.50
2023-05-20T13:59:00.012Z,5.50
2023-05-20T14:01:28.440Z,4.75
2023-05-20T14:03:55.083Z,5.63
2023-05-20T14:06:21.752Z,5.93
2023-05-20T14:08:48.390Z,5.07
2023-05-20T14:11:15.082Z,5.07
2023-05-20T14:13:41.592Z,5.10
2023-05-20T14:16:08.249Z,5.50
2023-05-20T14:18:34.766Z,5.32
2023-05-20T14:21:01.369Z,5.40
2023-05-20T14:23:28.011Z,5.53
2023-05-20T14:25:54.676Z,4.53
2023-05-20T14:28:23.443Z,5.85
2023-05-20T14:30:50.356Z,5.35
2023-05-20T14:33:17.515Z,5.28
2023-05-20T14:35:43.935Z,4.80
2023-05-20T14:38:11.712Z,5.40
2023-05-20T14:40:38.363Z,5.68
2023-05-20T14:43:04.835Z,5.03
2023-05-20T14:45:32.803Z,5.35
2023-05-20T14:47:59.272Z,5.00
2023-05-20T14:50:25.729Z,4.95
2023-05-20T14:52:52.378Z,4.50
2023-05-20T14:55:18.834Z,4.63
2023-05-20T14:57:45.312Z,4.50
2023-05-20T15:00:13.544Z,4.70
2023-05-20T15:02:40.129Z,4.55
2023-05-20T15:05:07.364Z,4.53
2023-05-20T15:07:34.382Z,4.85
2023-05-20T15:10:01.027Z,4.70
2023-05-20T15:12:27.761Z,5.22
2023-05-20T15:14:54.247Z,4.75
2023-05-20T15:17:20.817Z,5.00
2023-05-20T15:19:47.299Z,4.75
2023-05-20T15:22:13.952Z,4.85
2023-05-20T15:24:40.860Z,4.70
2023-05-20T15:27:07.388Z,4.80
2023-05-20T15:29:33.984Z,4.68
2023-05-20T15:32:00.752Z,5.20
2023-05-20T15:34:27.499Z,5.20
2023-05-20T15:36:54.140Z,4.88
2023-05-20T15:39:20.740Z,4.70
2023-05-20T15:41:49.804Z,5.03
2023-05-20T15:44:16.653Z,4.60
2023-05-20T15:46:44.925Z,4.78
2023-05-20T15:49:12.437Z,4.70
2023-05-20T15:51:39.886Z,5.40
2023-05-20T15:54:07.874Z,4.78
2023-05-20T15:56:34.325Z,5.50
2023-05-20T15:59:01.006Z,4.93
2023-05-20T16:01:28.420Z,5.00
2023-05-20T16:03:57.784Z,5.38
2023-05-20T16:06:24.999Z,5.13
2023-05-20T16:08:52.225Z,4.90
2023-05-20T16:11:18.928Z,5.65
2023-05-20T16:13:45.471Z,5.32
2023-05-20T16:16:13.357Z,5.32
2023-05-20T16:18:40.416Z,5.20
2023-05-20T16:21:07.879Z,4.90
2023-05-20T16:23:34.864Z,4.88
2023-05-20T16:26:01.472Z,5.55
2023-05-20T16:28:28.004Z,4.93
2023-05-20T16:30:55.589Z,5.57
2023-05-20T16:33:22.046Z,5.35
2023-05-20T16:35:49.033Z,4.90
2023-05-20T16:38:15.885Z,4.97
2023-05-20T16:40:42.425Z,5.85
2023-05-20T16:43:08.869Z,5.53
2023-05-20T16:45:36.363Z,5.18
2023-05-20T16:48:02.918Z,5.70
2023-05-20T16:50:29.421Z,5.22
2023-05-20T16:52:57.162Z,5.20
2023-05-20T16:55:23.593Z,5.07
2023-05-20T16:57:50.770Z,5.68
2023-05-20T17:00:18.431Z,5.15
2023-05-20T17:02:45.487Z,5.32
2023-05-20T17:05:12.402Z,5.57
2023-05-20T17:07:40.315Z,5.00
2023-05-20T17:10:07.263Z,5.40
2023-05-20T17:12:33.932Z,5.65
2023-05-20T17:15:00.496Z,5.93
2023-05-20T17:17:27.570Z,5.45
2023-05-20T17:19:54.769Z,5.20
2023-05-20T17:22:21.773Z,6.50
2023-05-20T17:24:48.612Z,5.40
2023-05-20T17:27:15.317Z,5.32
2023-05-20T17:29:41.874Z,5.45
2023-05-20T17:32:08.370Z,5.53
2023-05-20T17:34:34.924Z,6.03
2023-05-20T17:37:01.438Z,5.43
2023-05-20T17:39:28.362Z,5.45
2023-05-20T17:41:55.421Z,5.63
2023-05-20T17:44:21.955Z,6.07
2023-05-20T17:46:48.831Z,5.70
2023-05-20T17:49:15.433Z,5.60
2023-05-20T17:51:42.655Z,5.90
2023-05-20T17:54:09.267Z,5.50
2023-05-20T17:56:36.195Z,5.40
2023-05-20T17:59:02.652Z,5.75
2023-05-20T18:01:29.527Z,5.72
2023-05-20T18:03:58.822Z,5.75
2023-05-20T18:06:26.388Z,5.80
2023-05-20T18:08:52.847Z,5.93
2023-05-20T18:11:19.504Z,5.13
2023-05-20T18:13:46.424Z,6.15
2023-05-20T18:16:12.931Z,6.35
2023-05-20T18:18:39.728Z,5.97
2023-05-20T18:22:14.832Z,6.07
2023-05-20T18:24:42.182Z,6.07
2023-05-20T18:27:08.679Z,6.03
2023-05-20T18:29:35.522Z,5.93
2023-05-20T18:32:02.007Z,5.80
2023-05-20T18:34:28.763Z,7.05
2023-05-20T18:36:55.636Z,6.03
2023-05-20T18:39:22.461Z,5.60
2023-05-20T18:41:49.285Z,5.68
2023-05-20T18:44:17.471Z,5.18
2023-05-20T18:46:45.127Z,5.55
2023-05-20T18:49:11.686Z,5.55
2023-05-20T18:51:40.446Z,5.28
2023-05-20T18:54:07.161Z,5.50
2023-05-20T18:56:34.082Z,5.55
2023-05-20T18:59:01.214Z,5.90
2023-05-20T19:01:27.957Z,5.68
2023-05-20T19:03:54.645Z,7.03
2023-05-20T19:06:21.833Z,6.20
2023-05-20T19:08:49.371Z,6.65
2023-05-20T19:11:15.820Z,6.43
2023-05-20T19:13:42.236Z,6.78
2023-05-20T19:16:09.097Z,5.78
2023-05-20T19:18:35.822Z,5.95
2023-05-20T19:21:02.327Z,5.63
2023-05-20T19:23:28.841Z,6.03
2023-05-20T19:25:57.101Z,5.97
2023-05-20T19:28:23.968Z,6.20
2023-05-20T19:30:50.566Z,6.80
2023-05-20T19:33:17.509Z,6.13
2023-05-20T19:35:44.180Z,6.05
2023-05-20T19:38:11.088Z,6.43
2023-05-20T19:40:37.601Z,6.65
2023-05-20T19:43:05.042Z,6.32
2023-05-20T19:45:32.153Z,6.13
2023-05-20T19:47:58.834Z,6.20
2023-05-20T19:50:25.536Z,6.18
2023-05-20T19:52:52.618Z,6.82
2023-05-20T19:55:19.149Z,6.18
2023-05-20T19:57:47.944Z,6.75
2023-05-20T20:00:15.352Z,6.38
2023-05-20T20:02:42.260Z,6.78
2023-05-20T20:05:09.816Z,6.47
2023-05-20T20:07:36.272Z,7.28
2023-05-20T20:10:03.212Z,6.95
2023-05-20T20:12:29.776Z,7.25
2023-05-20T20:14:56.696Z,5.78
2023-05-20T20:17:23.604Z,7.07
2023-05-20T20:19:53.170Z,6.32
2023-05-20T20:22:19.762Z,6.93
2023-05-20T20:24:46.237Z,6.65
2023-05-20T20:27:13.624Z,6.93
2023-05-20T20:29:41.214Z,6.65
2023-05-20T20:32:08.864Z,7.05
2023-05-20T20:34:35.334Z,6.68
2023-05-20T20:37:02.090Z,7.20
2023-05-20T20:39:29.622Z,7.07
2023-05-20T20:41:59.036Z,7.15
2023-05-20T20:44:26.850Z,6.85
2023-05-20T20:46:54.824Z,7.13
2023-05-20T20:49:23.267Z,7.13
2023-05-20T20:51:50.881Z,7.60
2023-05-20T20:54:17.453Z,6.53
2023-05-20T20:56:46.721Z,7.43
2023-05-20T20:59:14.178Z,6.90
2023-05-20T21:01:44.859Z,7.75
2023-05-20T21:04:13.691Z,7.03
2023-05-20T21:06:45.909Z,7.22
2023-05-20T21:09:13.760Z,7.50
2023-05-20T21:11:43.232Z,8.13
2023-05-20T21:14:10.016Z,7.57
2023-05-20T21:16:36.703Z,7.53
2023-05-20T21:19:03.956Z,8.23
2023-05-20T21:21:31.052Z,8.18
2023-05-20T21:23:57.887Z,7.75
2023-05-20T21:26:25.337Z,7.88
2023-05-20T21:28:52.324Z,7.88
2023-05-20T21:31:18.798Z,9.10
2023-05-20T21:33:45.406Z,8.82
2023-05-20T21:36:11.837Z,7.70
2023-05-20T21:38:38.371Z,7.93
2023-05-20T21:41:05.042Z,7.82
2023-05-20T21:43:31.552Z,7.63
2023-05-20T21:45:58.518Z,7.88
2023-05-20T21:48:25.018Z,8.30
2023-05-20T21:50:51.461Z,8.38
2023-05-20T21:53:17.926Z,7.93
2023-05-20T21:55:44.416Z,6.78
2023-05-20T21:58:10.981Z,7.93
2023-05-20T22:00:37.469Z,8.43
2023-05-20T22:03:04.155Z,7.63
2023-05-20T22:05:30.641Z,8.65
2023-05-20T22:07:57.621Z,7.82
2023-05-20T22:10:24.668Z,8.27
2023-05-20T22:12:51.637Z,8.45
2023-05-20T22:15:18.615Z,8.32
2023-05-20T22:17:47.475Z,8.00
2023-05-20T22:20:14.635Z,8.98
2023-05-20T22:22:41.208Z,8.15
2023-05-20T22:25:08.232Z,7.80
2023-05-20T22:27:34.971Z,8.05
2023-05-20T22:30:02.366Z,7.88
2023-05-20T22:32:29.221Z,8.02
2023-05-20T22:34:58.092Z,8.57
2023-05-20T22:37:25.508Z,8.35
2023-05-20T22:39:52.002Z,8.95
2023-05-20T22:42:18.642Z,9.02
2023-05-20T22:44:45.096Z,8.27
2023-05-20T22:47:11.641Z,8.82
2023-05-20T22:49:42.162Z,8.95
2023-05-20T22:52:08.665Z,7.93
2023-05-20T22:54:35.161Z,9.38
2023-05-20T22:57:01.803Z,8.80
2023-05-20T22:59:31.408Z,8.80
2023-05-20T23:01:57.916Z,7.78
2023-05-20T23:04:24.892Z,7.90
2023-05-20T23:06:53.849Z,8.80
2023-05-20T23:09:21.203Z,8.63
2023-05-20T23:11:47.874Z,8.73
2023-05-20T23:14:14.577Z,8.43
2023-05-20T23:16:42.014Z,9.20
2023-05-20T23:19:09.361Z,9.20
2023-05-20T23:21:37.277Z,8.93
2023-05-20T23:24:04.567Z,9.23
2023-05-20T23:26:31.466Z,8.95
2023-05-20T23:28:58.011Z,9.38
2023-05-20T23:31:26.828Z,8.43
2023-05-20T23:33:54.046Z,10.00
2023-05-20T23:36:21.133Z,8.73
2023-05-20T23:38:47.608Z,9.52
2023-05-20T23:41:14.402Z,9.02
2023-05-20T23:43:41.141Z,8.73
2023-05-20T23:46:08.483Z,8.85
2023-05-20T23:48:36.192Z,9.38
2023-05-20T23:51:03.058Z,9.85
2023-05-20T23:53:29.965Z,9.32
2023-05-20T23:55:56.558Z,9.63
2023-05-20T23:58:23.473Z,10.05
